Regionale Übersicht

METAR und TAF

Montag, 01. März 2021 - 10:35 Uhr

Beobachtete horizontale meteorologische Sicht an ausgewählten Flughäfen. Die vollständigen METARs und Flugwettervorhersagen (TAFs) sind verfügbar, wenn Sie auf das entsprechende Symbol mit der ICAO-Flughafenkennung klicken.

  • Luxemburg (ELLX)

    Taf: TAF ELLX 010500Z 0106/0212 07010KT CAVOK=

    Metar: METAR ELLX 010920Z 05010KT CAVOK 06/00 Q1031 NOSIG=

  • Spangdahlem (ETAD)

    Taf: TAF ETAD 010458Z 0105/0211 06008KT 9999 SKC QNH3045INS BECMG 0108/0109 08010G15KT 9999 SKC QNH3045INS WND 07006KT AFT 0118 TX09/0115Z TN00/0205Z=

    Metar: METAR ETAD 010856Z AUTO 06012KT 9999 CLR 06/M01 A3045 RMK AO2 SLP315 T00571006 50002 $=

  • Metz/Nancy (LFJL)

    Taf: TAF LFJL 010500Z 0106/0206 08008KT CAVOK BECMG 0200/0202 VRB03KT 3000 BR PROB30 TEMPO 0203/0206 1000 BCFG=

    Metar: METAR LFJL 010900Z AUTO 07008KT 9999 0600 R22/P2000 R04/P2000 // NSC 06/M01 Q1030=

  • Saarbrücken/Intl (EDDR)

    Taf: TAF EDDR 010500Z 0106/0206 06009KT CAVOK=

    Metar: METAR EDDR 010920Z 05012KT CAVOK 06/M00 Q1030 NOSIG=

  • Hahn (EDFH)

    Taf: TAF EDFH 010600Z NIL=

    Metar: METAR COR EDFH 010920Z 11008KT 060V150 CAVOK 04/M00 Q1031=

  • Ramstein (ETAR)

    Taf: TAF ETAR 010200Z 0102/0208 VRB06KT 9999 SKC QNH3046INS BECMG 0109/0110 07012KT 9999 SKC QNH3043INS BECMG 0116/0117 06006KT 9999 SKC QNH3042INS TX11/0114Z TNM04/0104Z=

    Metar: nil

  • Nancy/Ochey (LFSO)

    Taf: TAF LFSO 010800Z 0109/0209 09005KT CAVOK PROB30 TEMPO 0204/0208 2000 BR=

    Metar: METAR LFSO 010900Z AUTO 07006KT 040V100 CAVOK 05/M01 Q1029 NOSIG=

  • Liège Bierset (EBLG)

    Taf: TAF EBLG 010510Z 0106/0212 06006KT 1400 BR SCT002 PROB30 TEMPO 0106/0108 0350 FG BKN002 BECMG 0108/0110 3000 BR BKN004 BECMG 0110/0112 7000 NSW SCT008 TEMPO 0202/0207 4000 BR=

    Metar: METAR EBLG 010920Z 02006KT 6000 FEW001 04/02 Q1032 NOSIG=

  • Saint-Dizier (LFSI)

    Taf: TAF LFSI 010800Z 0109/0209 09010KT CAVOK=

    Metar: METAR LFSI 010900Z AUTO 10009KT CAVOK 06/M01 Q1030=

  • Maastricht/Zuid Limburg (EHBK)

    Taf: TAF COR EHBK 010524Z 0106/0212 06008KT 0300 FG BKN001 PROB30 0106/0108 1600 BR BKN003 BECMG 0108/0111 CAVOK PROB30 0202/0207 7000=

    Metar: METAR EHBK 010925Z AUTO 06009KT 030V090 1900 BR BKN001 OVC002 03/03 Q1033 BECMG CAVOK=

  • Köln/Köln-Bonn (EDDK)

    Taf: TAF EDDK 010500Z 0106/0212 11006KT CAVOK TEMPO 0106/0108 VRB02KT=

    Metar: METAR EDDK 010920Z VRB01KT CAVOK 07/02 Q1034 NOSIG=

  • Charleroi (EBCI)

    Taf: TAF EBCI 010510Z 0106/0212 07006KT 1400 BR SCT002 PROB30 TEMPO 0106/0108 0350 FG BKN002 BECMG 0108/0110 3000 BR BKN004 BECMG 0110/0112 7000 NSW SCT008 TEMPO 0202/0207 4000 BR=

    Metar: METAR EBCI 010920Z 06009KT 0600 R24/0500N FG BKN001 01/01 Q1032 BECMG 1200 BR BKN002=

  • Wiesbaden (ETOU)

    Taf: TAF ETOU 010501Z 0105/0211 VRB06KT 9999 SKC QNH3048INS TX10/0114Z TN01/0105Z=

    Metar: METAR ETOU 010856Z AUTO 09008KT 9999 CLR 07/00 A3052 RMK AO2 SLP343 T00671001 51005 $=

  • Karlsruhe/Baden-Baden (EDSB)

    Taf: TAF EDSB 010500Z 0106/0206 03009KT CAVOK BECMG 0118/0121 03004KT TEMPO 0202/0206 1200 BCFG=

    Metar: METAR EDSB 010920Z 02007KT 350V050 CAVOK 07/00 Q1031=

  • Chalons/Vatry (LFOK)

    Taf: TAF LFOK 010500Z 0106/0206 05008KT CAVOK PROB30 0202/0206 4000 BR=

    Metar: METAR LFOK 010900Z AUTO 04007KT 020V080 CAVOK 05/01 Q1030 NOSIG=

  • Frankfurt/Main (EDDF)

    Taf: TAF EDDF 010600Z NIL=

    Metar: METAR EDDF 010920Z 06011KT CAVOK 06/01 Q1034 NOSIG=

  • Brüssel (EBBR)

    Taf: TAF EBBR 010510Z 0106/0212 08008KT 1400 BR SCT003 TEMPO 0106/0108 0250 FG BKN002 BECMG 0108/0110 3000 BR BKN006 BECMG 0110/0112 7000 NSW SCT010 BECMG 0200/0202 3000 BR PROB30 TEMPO 0203/0208 0500 FG VV001 BECMG 0208/0210 7000 NSW=

    Metar: METAR EBBR 010920Z 09006KT 2500 BR BKN004 03/02 Q1033 BECMG 4000 BR BKN006=

  • Düsseldorf (EDDL)

    Taf: TAF AMD EDDL 010701Z 0107/0212 06007KT 6000 BKN004 BECMG 0107/0109 BKN006 BECMG 0109/0111 CAVOK BECMG 0200/0203 13007KT TEMPO 0200/0206 VRB02KT=

    Metar: METAR EDDL 010920Z 03009KT 9999 SCT006 05/02 Q1034 NOSIG=

  • Luxeuil (LFSX)

    Taf: TAF LFSX 010800Z 0109/0209 25010KT CAVOK TEMPO 0121/0208 4000 BR=

    Metar: METAR LFSX 010900Z AUTO VRB01KT CAVOK 08/01 Q1029=

  • Eindhoven (EHEH)

    Taf: TAF EHEH 010516Z 0106/0212 08008KT 1500 BR BKN001 BECMG 0109/0111 4000 SCT004 BKN006 BECMG 0111/0113 9999 NSW FEW012 PROB30 0122/0208 1500 BCFG=

    Metar: METAR EHEH 010925Z AUTO 07007KT 050V120 3000 R03/3000N BR OVC003 04/04 Q1034 YLO BECMG 5000 BR FEW003 OVC004=

  • Niederrhein (EDLV)

    Taf: TAF EDLV 010500Z NIL=

    Metar: METAR EDLV 010920Z NIL=

  • Dortmund/Wickede (EDLW)

    Taf: TAF EDLW 010500Z 0106/0206 07005KT 0500 FG BKN000 PROB40 TEMPO 0106/0109 0100 FG BECMG 0109/0112 CAVOK BECMG 0122/0124 13004KT PROB30 TEMPO 0200/0204 1500 BCFG=

    Metar: METAR EDLW 010920Z 07006KT 0350 R06/0450D FG VV/// 02/02 Q1035=

  • Stuttgart/Echterdingen (EDDS)

    Taf: TAF EDDS 010500Z 0106/0206 VRB03KT CAVOK BECMG 0107/0109 07008KT BECMG 0118/0120 VRB03KT=

    Metar: METAR EDDS 010920Z 07006KT CAVOK 05/M01 Q1031 NOSIG=

  • Basel-Mühlhausen (LFSB)

    Taf: TAF LFSB 010500Z 0106/0206 VRB03KT CAVOK BECMG 0108/0111 01005KT BECMG 0118/0120 VRB03KT PROB40 TEMPO 0122/0206 4000 BR=

    Metar: METAR LFSB 010900Z VRB02KT CAVOK 06/01 Q1030 NOSIG=

  • Lille (LFQQ)

    Taf: TAF AMD LFQQ 010900Z 0109/0212 06008KT 5000 BR NSC PROB30 0109/0110 2000 BKN003 BECMG 0110/0112 9999 NSW PROB30 0204/0209 4000 BR=

    Metar: METAR LFQQ 010900Z AUTO 07007KT 7000 NSC 05/03 Q1032 NOSIG=

  • Paris/Charles de Gaulle (LFPG)

    Taf: TAF LFPG 010500Z 0106/0212 07008KT CAVOK TX13/0212Z TN00/0107Z PROB30 TEMPO 0202/0204 4000 BR TEMPO 0204/0208 4000 BR PROB30 TEMPO 0204/0208 0700 FG BKN003=

    Metar: METAR LFPG 010900Z 07010KT CAVOK 06/00 Q1030 NOSIG=

  • Paderborn/Lippstadt (EDLP)

    Taf: TAF EDLP 010650Z 0107/0206 12006KT 2000 BR OVC002 TEMPO 0107/0109 1200 BR OVC001 BECMG 0109/0111 3000 BR OVC005 BECMG 0111/0113 6000 SCT010=

    Metar: METAR COR EDLP 010920Z 09007KT 7000 OVC003 03/02 Q1035=

  • Paris/Le Bourget (LFPB)

    Taf: TAF LFPB 010600Z NIL=

    Metar: METAR LFPB 010900Z AUTO 07010KT CAVOK 07/01 Q1030 NOSIG=

  • Rotterdam (EHRD)

    Taf: TAF EHRD 010516Z 0106/0212 08010KT 6000 BKN005 PROB30 TEMPO 0106/0108 0700 FG BKN002 BECMG 0108/0111 9999 SCT020 BECMG 0123/0202 6000 PROB40 0202/0208 2000 BR MIFG BECMG 0207/0210 CAVOK=

    Metar: METAR EHRD 010925Z AUTO 09007KT 050V130 4400 BR OVC004 04/03 Q1034 BECMG 6000 OVC005=

  • Zürich/Kloten (LSZH)

    Taf: TAF LSZH 010825Z 0109/0215 VRB01KT 9000 NSC TX11/0115Z TNM03/0206Z TX14/0215Z BECMG 0109/0111 CAVOK BECMG 0110/0113 05005KT BECMG 0116/0118 VRB02KT BECMG 0200/0203 9000 MIFG NSC PROB30 0204/0208 3000 BCFG NSC BECMG 0208/0211 CAVOK=

    Metar: METAR LSZH 010920Z VRB03KT CAVOK 04/00 Q1031 NOSIG=

  • Oostende/Intl (EBOS)

    Taf: TAF EBOS 010510Z 0106/0212 10008KT 2000 BR NSC SCT003 PROB40 TEMPO 0106/0109 0350 FG BKN002 BECMG 0109/0111 3500 BR BKN007 BECMG 0113/0115 7000 NSW SCT010 BECMG 0200/0202 3000 BR PROB40 TEMPO 0203/0208 0500 FG VV001 BECMG 0208/0210 7000 NSW=

    Metar: METAR EBOS 010920Z 11007KT 1000 R08/0900N R26/1000U BR BKN002 02/02 Q1033 BECMG 1800 BR BKN003=

  • Paris/Orly (LFPO)

    Taf: TAF LFPO 010600Z NIL=

    Metar: METAR LFPO 010900Z 07004KT CAVOK 07/01 Q1029 NOSIG=

  • Beauvais (LFOB)

    Taf: TAF LFOB 010500Z 0106/0206 09008KT CAVOK BECMG 0123/0203 1500 BR PROB40 0202/0206 0500 FG VV///=

    Metar: METAR LFOB 010900Z AUTO 08006KT CAVOK 06/02 Q1030 NOSIG=

  • Münster/Intl (EDDG)

    Taf: TAF AMD EDDG 010701Z 0107/0206 VRB03KT 8000 BKN007 BECMG 0108/0110 07005KT BKN010 BECMG 0110/0113 SCT010 BECMG 0120/0122 VRB03KT=

    Metar: METAR EDDG 010920Z 05005KT 360V120 9999 BKN010 04/02 Q1035 NOSIG=

  • Illesheim (ETIK)

    Taf: TAF ETIK 010704Z 0107/0213 10009KT 9999 SKC QNH3042INS TX12/0206Z TNM06/0108Z=

    Metar: METAR ETIK 010856Z AUTO 04003KT 9999 CLR 03/00 A3053 RMK AO2 SLP360 T00271004 52007 $=

  • Duebendorf (LSMD)

    Taf: TAF LSMD 010500Z NIL=

    Metar: METAR LSMD 010920Z 00000KT CAVOK 05/01 Q1031 RMK BLU=

  • Villacoublay (LFPV)

    Taf: TAF LFPV 010800Z 0109/0209 08006KT CAVOK TX14/0115Z TN02/0206Z=

    Metar: METAR LFPV 010900Z AUTO 07006KT CAVOK 07/00 Q1029 NOSIG=

  • Payerne (LSMP)

    Taf: TAF LSMP 010525Z 0106/0212 VRB02KT 4500 BR NSC PROB30 0106/0110 BKN006 BECMG 0110/0112 CAVOK BECMG 0203/0206 4500 BR NSC BECMG 0210/0212 CAVOK=

    Metar: METAR LSMP 010920Z 00000KT 7000 NSC 03/00 Q1031 RMK WHT=

  • Amsterdam/Schipol (EHAM)

    Taf: TAF EHAM 010509Z 0106/0212 08009KT 0500 FG OVC000 BECMG 0107/0108 4000 BR BKN005 BECMG 0108/0111 9999 NSW SCT015 BECMG 0123/0202 6000 PROB30 0202/0208 2000 BR MIFG BECMG 0207/0210 CAVOK=

    Metar: METAR EHAM 010925Z 08010KT 050V110 9000 SCT005 BKN006 04/03 Q1035 NOSIG=

  • Emmen (LSME)

    Taf: TAF LSME 010500Z NIL=

    Metar: METAR LSME 010920Z 00000KT 0350 R04/0650N R22/0800U FG VV001 01/01 Q1031 RMK RED=

  • Friedrichshafen (EDNY)

    Taf: TAF EDNY 010500Z 0106/0206 03004KT CAVOK TEMPO 0200/0202 3500 BCFG BECMG 0202/0204 3000 BCFG TEMPO 0203/0206 0500 FZFG VV001=

    Metar: METAR EDNY 010920Z 08004KT CAVOK 04/M01 Q1031=

  • Alpnach (LSMA)

    Taf: TAF LSMA 010500Z NIL=

    Metar: METAR LSMA 010920Z VRB02KT 0500 R01/0800V2000D R19/0750N FG VV001 01/00 Q1031 RMK RED=

  • Meiringen (LSMM)

    Taf: TAF LSMM 010500Z NIL=

    Metar: METAR LSMM 010920Z VRB02KT CAVOK 03/M00 Q1030 RMK BLU=

  • Nürnberg (EDDN)

    Taf: TAF EDDN 010500Z 0106/0206 VRB03KT CAVOK BECMG 0108/0110 08008KT BECMG 0119/0121 09003KT PROB40 TEMPO 0203/0206 BKN006=

    Metar: METAR EDDN 010920Z VRB02KT CAVOK 07/00 Q1033 NOSIG=

  • Rouen (LFOP)

    Taf: TAF LFOP 010500Z 0106/0206 08008KT CAVOK BECMG 0202/0205 4000 BR=

    Metar: METAR LFOP 010900Z AUTO /////KT CAVOK 06/02 Q1029=

  • Evreux (LFOE)

    Taf: TAF LFOE 010800Z 0109/0209 05005KT CAVOK BECMG 0200/0203 4000 BR TEMPO 0204/0208 2000 BR=

    Metar: METAR LFOE 010900Z AUTO 09006KT CAVOK 06/01 Q1029 NOSIG=

  • Erfurt/Bindersleben (EDDE)

    Taf: TAF EDDE 010500Z 0106/0206 06005KT 0100 FG VV001 TEMPO 0106/0109 0900 FG BKN004 BECMG 0109/0112 4000 BR BKN004 BECMG 0112/0115 CAVOK BECMG 0120/0124 0500 FG BKN002 TEMPO 0200/0206 0300 FG BKN001=

    Metar: METAR EDDE 010920Z 19004KT 140V230 5000 BR OVC003 02/01 Q1035 BECMG BKN005=